sensor_id;sensor_type;location;lat;lon;timestamp;P1;durP1;ratioP1;P2;durP2;ratioP2
39492;SDS011;25176;51.060;3.720;2022-08-11T00:02:27;4.00;;;2.00;;
39492;SDS011;25176;51.060;3.720;2022-08-11T00:05:00;3.95;;;2.03;;
39492;SDS011;25176;51.060;3.720;2022-08-11T00:07:53;4.97;;;2.13;;
39492;SDS011;25176;51.060;3.720;2022-08-11T00:10:22;4.28;;;2.25;;
39492;SDS011;25176;51.060;3.720;2022-08-11T00:12:53;3.50;;;1.88;;
39492;SDS011;25176;51.060;3.720;2022-08-11T00:15:21;5.78;;;2.78;;
39492;SDS011;25176;51.060;3.720;2022-08-11T00:17:49;4.97;;;2.20;;
39492;SDS011;25176;51.060;3.720;2022-08-11T00:20:20;2.30;;;1.88;;
39492;SDS011;25176;51.060;3.720;2022-08-11T00:22:52;3.78;;;2.20;;
39492;SDS011;25176;51.060;3.720;2022-08-11T00:25:37;3.97;;;1.70;;
39492;SDS011;25176;51.060;3.720;2022-08-11T00:28:24;4.53;;;2.00;;
39492;SDS011;25176;51.060;3.720;2022-08-11T00:30:55;3.88;;;2.03;;
39492;SDS011;25176;51.060;3.720;2022-08-11T00:33:24;3.45;;;1.80;;
39492;SDS011;25176;51.060;3.720;2022-08-11T00:36:07;5.00;;;2.45;;
39492;SDS011;25176;51.060;3.720;2022-08-11T00:38:36;3.83;;;2.15;;
39492;SDS011;25176;51.060;3.720;2022-08-11T00:41:10;3.45;;;2.20;;
39492;SDS011;25176;51.060;3.720;2022-08-11T00:43:59;6.18;;;1.77;;
39492;SDS011;25176;51.060;3.720;2022-08-11T00:47:01;3.47;;;2.22;;
39492;SDS011;25176;51.060;3.720;2022-08-11T00:49:42;2.30;;;1.92;;
39492;SDS011;25176;51.060;3.720;2022-08-11T01:00:22;4.50;;;2.50;;
39492;SDS011;25176;51.060;3.720;2022-08-11T01:19:35;3.63;;;2.47;;
39492;SDS011;25176;51.060;3.720;2022-08-11T01:39:32;4.75;;;2.35;;
39492;SDS011;25176;51.060;3.720;2022-08-11T01:48:35;4.47;;;2.47;;
39492;SDS011;25176;51.060;3.720;2022-08-11T01:51:34;3.83;;;2.47;;
39492;SDS011;25176;51.060;3.720;2022-08-11T01:59:36;3.50;;;2.50;;
39492;SDS011;25176;51.060;3.720;2022-08-11T02:02:31;4.43;;;2.50;;
39492;SDS011;25176;51.060;3.720;2022-08-11T02:19:41;3.92;;;2.97;;
39492;SDS011;25176;51.060;3.720;2022-08-11T02:31:24;5.25;;;3.05;;
39492;SDS011;25176;51.060;3.720;2022-08-11T02:34:20;5.13;;;3.15;;
39492;SDS011;25176;51.060;3.720;2022-08-11T02:36:58;5.38;;;2.80;;
39492;SDS011;25176;51.060;3.720;2022-08-11T02:40:05;6.65;;;2.90;;
39492;SDS011;25176;51.060;3.720;2022-08-11T02:51:05;6.28;;;3.50;;
39492;SDS011;25176;51.060;3.720;2022-08-11T02:59:30;3.63;;;2.85;;
39492;SDS011;25176;51.060;3.720;2022-08-11T03:05:11;5.38;;;3.28;;
39492;SDS011;25176;51.060;3.720;2022-08-11T03:11:21;5.93;;;3.33;;
39492;SDS011;25176;51.060;3.720;2022-08-11T03:20:07;4.25;;;2.50;;
39492;SDS011;25176;51.060;3.720;2022-08-11T03:22:21;7.57;;;3.47;;
39492;SDS011;25176;51.060;3.720;2022-08-11T03:25:05;5.90;;;3.08;;
39492;SDS011;25176;51.060;3.720;2022-08-11T03:27:52;6.90;;;3.05;;
39492;SDS011;25176;51.060;3.720;2022-08-11T03:30:51;4.03;;;3.13;;
39492;SDS011;25176;51.060;3.720;2022-08-11T03:33:37;4.07;;;3.10;;
39492;SDS011;25176;51.060;3.720;2022-08-11T03:41:51;7.40;;;3.58;;
39492;SDS011;25176;51.060;3.720;2022-08-11T03:47:42;6.75;;;3.20;;
39492;SDS011;25176;51.060;3.720;2022-08-11T03:53:04;5.57;;;3.17;;
39492;SDS011;25176;51.060;3.720;2022-08-11T03:56:12;5.43;;;3.33;;
39492;SDS011;25176;51.060;3.720;2022-08-11T04:09:40;6.47;;;3.60;;
39492;SDS011;25176;51.060;3.720;2022-08-11T04:24:32;5.78;;;3.65;;
39492;SDS011;25176;51.060;3.720;2022-08-11T04:29:41;10.10;;;3.63;;
39492;SDS011;25176;51.060;3.720;2022-08-11T04:32:30;6.80;;;3.47;;
39492;SDS011;25176;51.060;3.720;2022-08-11T04:49:02;6.97;;;4.03;;
39492;SDS011;25176;51.060;3.720;2022-08-11T05:01:39;6.05;;;3.97;;
39492;SDS011;25176;51.060;3.720;2022-08-11T05:13:32;7.05;;;3.83;;
39492;SDS011;25176;51.060;3.720;2022-08-11T05:16:26;6.82;;;4.15;;
39492;SDS011;25176;51.060;3.720;2022-08-11T05:19:19;10.70;;;3.78;;
39492;SDS011;25176;51.060;3.720;2022-08-11T05:25:01;10.75;;;3.83;;
39492;SDS011;25176;51.060;3.720;2022-08-11T05:30:49;10.25;;;4.97;;
39492;SDS011;25176;51.060;3.720;2022-08-11T05:33:49;8.30;;;3.47;;
39492;SDS011;25176;51.060;3.720;2022-08-11T05:36:39;9.43;;;4.40;;
39492;SDS011;25176;51.060;3.720;2022-08-11T05:39:14;7.57;;;4.10;;
39492;SDS011;25176;51.060;3.720;2022-08-11T05:42:03;7.45;;;4.22;;
39492;SDS011;25176;51.060;3.720;2022-08-11T05:44:49;6.93;;;4.15;;
39492;SDS011;25176;51.060;3.720;2022-08-11T05:47:36;14.95;;;5.00;;
39492;SDS011;25176;51.060;3.720;2022-08-11T05:50:21;8.20;;;4.30;;
39492;SDS011;25176;51.060;3.720;2022-08-11T05:53:11;9.77;;;4.18;;
39492;SDS011;25176;51.060;3.720;2022-08-11T05:55:58;5.43;;;4.20;;
39492;SDS011;25176;51.060;3.720;2022-08-11T05:58:48;7.97;;;4.30;;
39492;SDS011;25176;51.060;3.720;2022-08-11T06:01:23;7.85;;;4.32;;
39492;SDS011;25176;51.060;3.720;2022-08-11T06:03:52;6.85;;;4.35;;
39492;SDS011;25176;51.060;3.720;2022-08-11T06:07:00;11.07;;;4.57;;
39492;SDS011;25176;51.060;3.720;2022-08-11T06:09:33;9.27;;;4.60;;
39492;SDS011;25176;51.060;3.720;2022-08-11T06:12:07;12.25;;;5.85;;
39492;SDS011;25176;51.060;3.720;2022-08-11T06:14:55;10.35;;;5.15;;
39492;SDS011;25176;51.060;3.720;2022-08-11T06:17:33;10.30;;;5.10;;
39492;SDS011;25176;51.060;3.720;2022-08-11T06:20:08;7.55;;;4.63;;
39492;SDS011;25176;51.060;3.720;2022-08-11T06:22:36;12.98;;;5.00;;
39492;SDS011;25176;51.060;3.720;2022-08-11T06:25:03;10.32;;;5.03;;
39492;SDS011;25176;51.060;3.720;2022-08-11T06:27:33;15.23;;;5.45;;
39492;SDS011;25176;51.060;3.720;2022-08-11T06:30:01;7.85;;;4.53;;
39492;SDS011;25176;51.060;3.720;2022-08-11T06:32:40;6.22;;;4.63;;
39492;SDS011;25176;51.060;3.720;2022-08-11T06:35:22;7.03;;;4.40;;
39492;SDS011;25176;51.060;3.720;2022-08-11T06:38:05;8.80;;;5.70;;
39492;SDS011;25176;51.060;3.720;2022-08-11T06:43:14;7.38;;;4.22;;
39492;SDS011;25176;51.060;3.720;2022-08-11T06:48:27;9.27;;;5.43;;
39492;SDS011;25176;51.060;3.720;2022-08-11T06:50:58;8.73;;;5.00;;
39492;SDS011;25176;51.060;3.720;2022-08-11T06:53:44;15.93;;;5.60;;
39492;SDS011;25176;51.060;3.720;2022-08-11T06:56:24;10.23;;;5.90;;
39492;SDS011;25176;51.060;3.720;2022-08-11T07:02:08;6.85;;;4.57;;
39492;SDS011;25176;51.060;3.720;2022-08-11T07:13:42;8.90;;;4.57;;
39492;SDS011;25176;51.060;3.720;2022-08-11T07:16:28;9.05;;;4.25;;
39492;SDS011;25176;51.060;3.720;2022-08-11T07:19:02;6.60;;;4.30;;
39492;SDS011;25176;51.060;3.720;2022-08-11T07:21:48;9.88;;;4.97;;
39492;SDS011;25176;51.060;3.720;2022-08-11T07:24:38;9.50;;;4.30;;
39492;SDS011;25176;51.060;3.720;2022-08-11T07:27:26;8.45;;;4.53;;
39492;SDS011;25176;51.060;3.720;2022-08-11T07:30:15;3.58;;;2.75;;
39492;SDS011;25176;51.060;3.720;2022-08-11T07:32:49;12.32;;;3.95;;
39492;SDS011;25176;51.060;3.720;2022-08-11T07:35:17;9.80;;;3.75;;
39492;SDS011;25176;51.060;3.720;2022-08-11T07:37:49;11.15;;;3.60;;
39492;SDS011;25176;51.060;3.720;2022-08-11T07:40:21;17.15;;;3.47;;
39492;SDS011;25176;51.060;3.720;2022-08-11T07:42:48;9.65;;;2.95;;
39492;SDS011;25176;51.060;3.720;2022-08-11T07:45:16;10.65;;;3.08;;
39492;SDS011;25176;51.060;3.720;2022-08-11T07:48:01;7.70;;;2.90;;
39492;SDS011;25176;51.060;3.720;2022-08-11T07:50:46;8.05;;;2.97;;
39492;SDS011;25176;51.060;3.720;2022-08-11T07:53:32;12.18;;;2.72;;
39492;SDS011;25176;51.060;3.720;2022-08-11T07:55:59;6.55;;;2.67;;
39492;SDS011;25176;51.060;3.720;2022-08-11T07:58:26;11.43;;;3.55;;
39492;SDS011;25176;51.060;3.720;2022-08-11T08:01:11;6.82;;;3.20;;
39492;SDS011;25176;51.060;3.720;2022-08-11T08:04:03;11.35;;;3.22;;
39492;SDS011;25176;51.060;3.720;2022-08-11T08:06:48;7.20;;;2.83;;
39492;SDS011;25176;51.060;3.720;2022-08-11T08:09:33;7.32;;;2.92;;
39492;SDS011;25176;51.060;3.720;2022-08-11T08:12:21;5.30;;;2.63;;
39492;SDS011;25176;51.060;3.720;2022-08-11T08:15:07;4.72;;;2.83;;
39492;SDS011;25176;51.060;3.720;2022-08-11T08:17:54;6.40;;;2.63;;
39492;SDS011;25176;51.060;3.720;2022-08-11T08:20:23;8.18;;;2.80;;
39492;SDS011;25176;51.060;3.720;2022-08-11T08:22:52;6.93;;;2.67;;
39492;SDS011;25176;51.060;3.720;2022-08-11T08:25:27;10.50;;;3.10;;
39492;SDS011;25176;51.060;3.720;2022-08-11T08:27:55;8.43;;;2.53;;
39492;SDS011;25176;51.060;3.720;2022-08-11T08:30:23;7.05;;;2.60;;
39492;SDS011;25176;51.060;3.720;2022-08-11T08:33:11;6.45;;;2.17;;
39492;SDS011;25176;51.060;3.720;2022-08-11T08:35:46;4.53;;;2.33;;
39492;SDS011;25176;51.060;3.720;2022-08-11T08:38:52;7.20;;;2.38;;
39492;SDS011;25176;51.060;3.720;2022-08-11T08:41:22;7.93;;;2.10;;
39492;SDS011;25176;51.060;3.720;2022-08-11T08:43:52;9.40;;;2.47;;
39492;SDS011;25176;51.060;3.720;2022-08-11T08:46:26;11.73;;;2.47;;
39492;SDS011;25176;51.060;3.720;2022-08-11T08:49:02;10.35;;;3.17;;
39492;SDS011;25176;51.060;3.720;2022-08-11T08:51:28;7.82;;;2.35;;
39492;SDS011;25176;51.060;3.720;2022-08-11T08:54:13;7.38;;;2.55;;
39492;SDS011;25176;51.060;3.720;2022-08-11T08:56:41;4.65;;;2.42;;
39492;SDS011;25176;51.060;3.720;2022-08-11T08:59:10;8.93;;;2.50;;
39492;SDS011;25176;51.060;3.720;2022-08-11T09:01:49;4.55;;;2.22;;
39492;SDS011;25176;51.060;3.720;2022-08-11T09:04:22;6.95;;;2.47;;
39492;SDS011;25176;51.060;3.720;2022-08-11T09:06:49;4.45;;;2.17;;
39492;SDS011;25176;51.060;3.720;2022-08-11T09:09:15;6.13;;;2.22;;
39492;SDS011;25176;51.060;3.720;2022-08-11T09:11:41;5.72;;;2.10;;
39492;SDS011;25176;51.060;3.720;2022-08-11T09:16:45;4.90;;;2.00;;
39492;SDS011;25176;51.060;3.720;2022-08-11T09:19:12;3.17;;;1.90;;
39492;SDS011;25176;51.060;3.720;2022-08-11T09:21:42;6.57;;;2.00;;
39492;SDS011;25176;51.060;3.720;2022-08-11T09:24:10;4.10;;;1.83;;
39492;SDS011;25176;51.060;3.720;2022-08-11T09:26:55;3.42;;;1.85;;
39492;SDS011;25176;51.060;3.720;2022-08-11T09:29:28;5.63;;;2.20;;
39492;SDS011;25176;51.060;3.720;2022-08-11T09:31:55;4.63;;;1.77;;
39492;SDS011;25176;51.060;3.720;2022-08-11T09:34:22;5.53;;;2.10;;
39492;SDS011;25176;51.060;3.720;2022-08-11T09:36:50;7.20;;;1.83;;
39492;SDS011;25176;51.060;3.720;2022-08-11T09:39:36;5.15;;;1.90;;
39492;SDS011;25176;51.060;3.720;2022-08-11T09:42:22;3.65;;;1.90;;
39492;SDS011;25176;51.060;3.720;2022-08-11T09:45:09;4.00;;;2.05;;
39492;SDS011;25176;51.060;3.720;2022-08-11T09:47:36;4.05;;;1.95;;
39492;SDS011;25176;51.060;3.720;2022-08-11T09:50:02;10.07;;;2.17;;
39492;SDS011;25176;51.060;3.720;2022-08-11T09:52:29;4.57;;;2.30;;
39492;SDS011;25176;51.060;3.720;2022-08-11T09:54:59;3.97;;;1.55;;
39492;SDS011;25176;51.060;3.720;2022-08-11T09:57:26;13.80;;;2.22;;
39492;SDS011;25176;51.060;3.720;2022-08-11T10:00:12;11.52;;;2.72;;
39492;SDS011;25176;51.060;3.720;2022-08-11T10:02:43;4.22;;;1.52;;
39492;SDS011;25176;51.060;3.720;2022-08-11T10:05:12;11.32;;;2.53;;
39492;SDS011;25176;51.060;3.720;2022-08-11T10:07:59;4.07;;;1.70;;
39492;SDS011;25176;51.060;3.720;2022-08-11T10:10:26;3.63;;;1.50;;
39492;SDS011;25176;51.060;3.720;2022-08-11T10:13:02;9.05;;;2.20;;
39492;SDS011;25176;51.060;3.720;2022-08-11T10:15:31;7.63;;;2.20;;
39492;SDS011;25176;51.060;3.720;2022-08-11T10:18:16;2.83;;;1.80;;
39492;SDS011;25176;51.060;3.720;2022-08-11T10:21:28;4.88;;;1.73;;
39492;SDS011;25176;51.060;3.720;2022-08-11T10:23:54;6.50;;;1.77;;
39492;SDS011;25176;51.060;3.720;2022-08-11T10:26:42;6.65;;;2.47;;
39492;SDS011;25176;51.060;3.720;2022-08-11T10:29:18;6.20;;;2.15;;
39492;SDS011;25176;51.060;3.720;2022-08-11T10:32:04;11.20;;;2.13;;
39492;SDS011;25176;51.060;3.720;2022-08-11T10:34:50;6.15;;;2.50;;
39492;SDS011;25176;51.060;3.720;2022-08-11T10:37:16;5.72;;;2.08;;
39492;SDS011;25176;51.060;3.720;2022-08-11T10:39:44;6.45;;;1.63;;
39492;SDS011;25176;51.060;3.720;2022-08-11T10:42:10;16.00;;;3.47;;
39492;SDS011;25176;51.060;3.720;2022-08-11T10:44:57;4.35;;;1.75;;
39492;SDS011;25176;51.060;3.720;2022-08-11T10:47:25;6.43;;;2.05;;
39492;SDS011;25176;51.060;3.720;2022-08-11T10:50:01;7.88;;;2.33;;
39492;SDS011;25176;51.060;3.720;2022-08-11T10:52:47;9.55;;;2.80;;
39492;SDS011;25176;51.060;3.720;2022-08-11T10:55:32;7.85;;;2.40;;
39492;SDS011;25176;51.060;3.720;2022-08-11T10:58:21;8.50;;;2.15;;
39492;SDS011;25176;51.060;3.720;2022-08-11T11:01:06;3.80;;;2.08;;
39492;SDS011;25176;51.060;3.720;2022-08-11T11:03:33;3.80;;;2.00;;
39492;SDS011;25176;51.060;3.720;2022-08-11T11:09:13;2.90;;;2.13;;
39492;SDS011;25176;51.060;3.720;2022-08-11T11:11:47;7.28;;;2.35;;
39492;SDS011;25176;51.060;3.720;2022-08-11T11:14:40;7.60;;;1.92;;
39492;SDS011;25176;51.060;3.720;2022-08-11T11:17:31;6.30;;;2.55;;
39492;SDS011;25176;51.060;3.720;2022-08-11T11:20:26;2.63;;;1.90;;
39492;SDS011;25176;51.060;3.720;2022-08-11T11:23:00;4.07;;;2.45;;
39492;SDS011;25176;51.060;3.720;2022-08-11T11:25:39;15.50;;;3.25;;
39492;SDS011;25176;51.060;3.720;2022-08-11T11:36:57;20.85;;;4.20;;
39492;SDS011;25176;51.060;3.720;2022-08-11T11:39:26;6.90;;;2.45;;
39492;SDS011;25176;51.060;3.720;2022-08-11T11:41:55;3.63;;;2.38;;
39492;SDS011;25176;51.060;3.720;2022-08-11T11:44:25;3.63;;;2.20;;
39492;SDS011;25176;51.060;3.720;2022-08-11T11:46:52;5.88;;;2.53;;
39492;SDS011;25176;51.060;3.720;2022-08-11T11:49:21;5.85;;;2.38;;
39492;SDS011;25176;51.060;3.720;2022-08-11T11:51:49;5.32;;;2.90;;
39492;SDS011;25176;51.060;3.720;2022-08-11T11:54:17;8.82;;;3.20;;
39492;SDS011;25176;51.060;3.720;2022-08-11T11:56:47;8.18;;;2.28;;
39492;SDS011;25176;51.060;3.720;2022-08-11T11:59:17;5.05;;;2.33;;
39492;SDS011;25176;51.060;3.720;2022-08-11T12:02:08;9.82;;;2.83;;
39492;SDS011;25176;51.060;3.720;2022-08-11T12:04:35;8.02;;;2.78;;
39492;SDS011;25176;51.060;3.720;2022-08-11T12:07:04;6.57;;;2.53;;
39492;SDS011;25176;51.060;3.720;2022-08-11T12:09:51;9.27;;;2.50;;
39492;SDS011;25176;51.060;3.720;2022-08-11T12:12:17;4.50;;;1.83;;
39492;SDS011;25176;51.060;3.720;2022-08-11T12:15:03;6.95;;;2.63;;
39492;SDS011;25176;51.060;3.720;2022-08-11T12:17:30;6.38;;;2.83;;
39492;SDS011;25176;51.060;3.720;2022-08-11T12:19:56;5.57;;;2.05;;
39492;SDS011;25176;51.060;3.720;2022-08-11T12:22:22;5.22;;;2.45;;
39492;SDS011;25176;51.060;3.720;2022-08-11T12:25:10;5.82;;;2.53;;
39492;SDS011;25176;51.060;3.720;2022-08-11T12:27:54;4.43;;;2.38;;
39492;SDS011;25176;51.060;3.720;2022-08-11T12:30:23;4.22;;;2.30;;
39492;SDS011;25176;51.060;3.720;2022-08-11T12:32:49;6.15;;;2.67;;
39492;SDS011;25176;51.060;3.720;2022-08-11T12:35:16;4.43;;;2.15;;
39492;SDS011;25176;51.060;3.720;2022-08-11T12:37:43;8.60;;;2.95;;
39492;SDS011;25176;51.060;3.720;2022-08-11T12:40:12;9.07;;;2.30;;
39492;SDS011;25176;51.060;3.720;2022-08-11T12:43:03;3.83;;;2.53;;
39492;SDS011;25176;51.060;3.720;2022-08-11T12:45:53;8.00;;;2.35;;
39492;SDS011;25176;51.060;3.720;2022-08-11T12:48:22;4.90;;;3.03;;
39492;SDS011;25176;51.060;3.720;2022-08-11T12:51:15;9.75;;;3.03;;
39492;SDS011;25176;51.060;3.720;2022-08-11T12:54:14;6.20;;;2.42;;
39492;SDS011;25176;51.060;3.720;2022-08-11T12:56:44;9.88;;;2.85;;
39492;SDS011;25176;51.060;3.720;2022-08-11T12:59:31;22.65;;;5.53;;
39492;SDS011;25176;51.060;3.720;2022-08-11T13:02:17;3.80;;;2.00;;
39492;SDS011;25176;51.060;3.720;2022-08-11T13:05:04;10.35;;;2.95;;
39492;SDS011;25176;51.060;3.720;2022-08-11T13:07:32;10.52;;;3.00;;
39492;SDS011;25176;51.060;3.720;2022-08-11T13:09:59;4.40;;;1.95;;
39492;SDS011;25176;51.060;3.720;2022-08-11T13:12:27;4.85;;;2.22;;
39492;SDS011;25176;51.060;3.720;2022-08-11T13:15:18;3.42;;;1.90;;
39492;SDS011;25176;51.060;3.720;2022-08-11T13:17:45;4.22;;;1.98;;
39492;SDS011;25176;51.060;3.720;2022-08-11T13:20:13;2.67;;;1.85;;
39492;SDS011;25176;51.060;3.720;2022-08-11T13:22:44;5.40;;;1.63;;
39492;SDS011;25176;51.060;3.720;2022-08-11T13:25:14;4.45;;;2.13;;
39492;SDS011;25176;51.060;3.720;2022-08-11T13:27:42;4.20;;;2.30;;
39492;SDS011;25176;51.060;3.720;2022-08-11T13:30:10;2.63;;;1.90;;
39492;SDS011;25176;51.060;3.720;2022-08-11T13:32:57;4.00;;;2.00;;
39492;SDS011;25176;51.060;3.720;2022-08-11T13:35:24;5.50;;;2.45;;
39492;SDS011;25176;51.060;3.720;2022-08-11T13:37:51;11.07;;;2.40;;
39492;SDS011;25176;51.060;3.720;2022-08-11T13:40:19;4.35;;;1.88;;
39492;SDS011;25176;51.060;3.720;2022-08-11T13:42:45;3.55;;;1.88;;
39492;SDS011;25176;51.060;3.720;2022-08-11T13:45:13;5.30;;;2.30;;
39492;SDS011;25176;51.060;3.720;2022-08-11T13:47:39;5.03;;;1.90;;
39492;SDS011;25176;51.060;3.720;2022-08-11T13:50:06;2.78;;;1.90;;
39492;SDS011;25176;51.060;3.720;2022-08-11T13:52:33;5.60;;;2.50;;
39492;SDS011;25176;51.060;3.720;2022-08-11T13:55:00;5.30;;;2.00;;
39492;SDS011;25176;51.060;3.720;2022-08-11T13:57:28;6.57;;;2.03;;
39492;SDS011;25176;51.060;3.720;2022-08-11T13:59:57;3.70;;;2.22;;
39492;SDS011;25176;51.060;3.720;2022-08-11T14:02:34;3.75;;;1.95;;
39492;SDS011;25176;51.060;3.720;2022-08-11T14:05:07;5.57;;;2.08;;
39492;SDS011;25176;51.060;3.720;2022-08-11T14:07:41;2.67;;;2.25;;
39492;SDS011;25176;51.060;3.720;2022-08-11T14:10:19;5.55;;;1.92;;
39492;SDS011;25176;51.060;3.720;2022-08-11T14:12:53;4.78;;;2.15;;
39492;SDS011;25176;51.060;3.720;2022-08-11T14:15:42;5.03;;;2.33;;
39492;SDS011;25176;51.060;3.720;2022-08-11T14:20:39;5.82;;;2.22;;
39492;SDS011;25176;51.060;3.720;2022-08-11T14:23:34;4.05;;;2.15;;
39492;SDS011;25176;51.060;3.720;2022-08-11T14:26:03;4.80;;;2.25;;
39492;SDS011;25176;51.060;3.720;2022-08-11T14:28:52;5.82;;;1.73;;
39492;SDS011;25176;51.060;3.720;2022-08-11T14:31:30;2.55;;;1.88;;
39492;SDS011;25176;51.060;3.720;2022-08-11T14:34:01;4.95;;;2.58;;
39492;SDS011;25176;51.060;3.720;2022-08-11T14:36:29;7.57;;;2.50;;
39492;SDS011;25176;51.060;3.720;2022-08-11T14:38:59;10.73;;;2.57;;
39492;SDS011;25176;51.060;3.720;2022-08-11T14:41:27;23.92;;;5.97;;
39492;SDS011;25176;51.060;3.720;2022-08-11T14:44:11;6.82;;;2.97;;
39492;SDS011;25176;51.060;3.720;2022-08-11T14:46:55;4.53;;;2.30;;
39492;SDS011;25176;51.060;3.720;2022-08-11T14:49:34;4.10;;;2.03;;
39492;SDS011;25176;51.060;3.720;2022-08-11T14:52:03;3.47;;;2.00;;
39492;SDS011;25176;51.060;3.720;2022-08-11T14:54:31;7.35;;;2.60;;
39492;SDS011;25176;51.060;3.720;2022-08-11T14:57:17;4.57;;;1.90;;
39492;SDS011;25176;51.060;3.720;2022-08-11T14:59:44;2.47;;;2.08;;
39492;SDS011;25176;51.060;3.720;2022-08-11T15:05:00;4.65;;;1.92;;
39492;SDS011;25176;51.060;3.720;2022-08-11T15:07:27;3.60;;;1.90;;
39492;SDS011;25176;51.060;3.720;2022-08-11T15:10:01;3.97;;;2.40;;
39492;SDS011;25176;51.060;3.720;2022-08-11T15:12:29;4.10;;;2.10;;
39492;SDS011;25176;51.060;3.720;2022-08-11T15:14:56;2.72;;;1.92;;
39492;SDS011;25176;51.060;3.720;2022-08-11T15:17:41;3.97;;;2.03;;
39492;SDS011;25176;51.060;3.720;2022-08-11T15:20:11;4.55;;;2.78;;
39492;SDS011;25176;51.060;3.720;2022-08-11T15:22:57;4.75;;;2.03;;
39492;SDS011;25176;51.060;3.720;2022-08-11T15:25:42;3.15;;;1.95;;
39492;SDS011;25176;51.060;3.720;2022-08-11T15:28:10;4.30;;;2.30;;
39492;SDS011;25176;51.060;3.720;2022-08-11T15:30:58;3.67;;;1.90;;
39492;SDS011;25176;51.060;3.720;2022-08-11T15:33:44;7.18;;;2.08;;
39492;SDS011;25176;51.060;3.720;2022-08-11T15:36:32;4.00;;;1.83;;
39492;SDS011;25176;51.060;3.720;2022-08-11T15:39:19;4.93;;;2.10;;
39492;SDS011;25176;51.060;3.720;2022-08-11T15:41:50;3.73;;;2.20;;
39492;SDS011;25176;51.060;3.720;2022-08-11T15:44:41;5.25;;;2.53;;
39492;SDS011;25176;51.060;3.720;2022-08-11T15:48:05;4.30;;;1.93;;
39492;SDS011;25176;51.060;3.720;2022-08-11T15:50:26;6.00;;;2.22;;
39492;SDS011;25176;51.060;3.720;2022-08-11T15:53:05;5.38;;;2.30;;
39492;SDS011;25176;51.060;3.720;2022-08-11T15:55:35;5.28;;;1.90;;
39492;SDS011;25176;51.060;3.720;2022-08-11T15:58:03;5.38;;;2.22;;
39492;SDS011;25176;51.060;3.720;2022-08-11T16:00:51;4.30;;;2.15;;
39492;SDS011;25176;51.060;3.720;2022-08-11T16:04:20;2.30;;;2.10;;
39492;SDS011;25176;51.060;3.720;2022-08-11T16:07:23;4.70;;;2.40;;
39492;SDS011;25176;51.060;3.720;2022-08-11T16:09:36;3.60;;;1.80;;
39492;SDS011;25176;51.060;3.720;2022-08-11T16:12:07;3.20;;;2.03;;
39492;SDS011;25176;51.060;3.720;2022-08-11T16:14:35;2.42;;;2.03;;
39492;SDS011;25176;51.060;3.720;2022-08-11T16:17:24;4.38;;;2.00;;
39492;SDS011;25176;51.060;3.720;2022-08-11T16:19:52;3.47;;;2.03;;
39492;SDS011;25176;51.060;3.720;2022-08-11T16:22:20;2.65;;;1.73;;
39492;SDS011;25176;51.060;3.720;2022-08-11T16:24:52;4.53;;;1.90;;
39492;SDS011;25176;51.060;3.720;2022-08-11T16:27:20;3.03;;;1.98;;
39492;SDS011;25176;51.060;3.720;2022-08-11T16:29:46;4.63;;;1.90;;
39492;SDS011;25176;51.060;3.720;2022-08-11T16:32:16;4.25;;;2.20;;
